Schedule Details

Flight Number: ASX130X
Departure: Princess Juliana (TNCM) at 23:10Z
Arrival: Warszawa Chopina (EPWA) at 08:10Z

Weather Information
TNCM 221800Z 09006KT 060V130 9999 SCT021TCU 30/23 Q1012 A2990 NOSIG RMK TCU NE
EPWA 221800Z 15008KT 4700 -RA BR BKN003 03/02 Q1013 NOSIG

Schedule Frequency

Route Map